createdAt,value
2022-12-23T00:00:28.791Z,6.05
2022-12-23T00:02:55.884Z,4.63
2022-12-23T00:05:22.955Z,5.18
2022-12-23T00:07:49.683Z,5.70
2022-12-23T00:10:16.514Z,5.10
2022-12-23T00:13:01.685Z,5.43
2022-12-23T00:15:28.602Z,4.78
2022-12-23T00:17:55.465Z,5.57
2022-12-23T00:20:22.536Z,5.15
2022-12-23T00:23:07.808Z,5.07
2022-12-23T00:25:41.051Z,6.22
2022-12-23T00:28:14.668Z,5.25
2022-12-23T00:30:52.429Z,5.53
2022-12-23T00:33:22.659Z,5.90
2022-12-23T00:35:50.576Z,5.20
2022-12-23T00:38:38.221Z,5.03
2022-12-23T00:41:34.838Z,5.78
2022-12-23T00:44:02.927Z,5.45
2022-12-23T00:46:29.811Z,6.03
2022-12-23T00:49:15.443Z,5.60
2022-12-23T00:51:42.185Z,6.07
2022-12-23T00:54:08.943Z,5.15
2022-12-23T00:56:35.772Z,6.38
2022-12-23T00:59:02.531Z,5.65
2022-12-23T01:01:48.119Z,5.97
2022-12-23T01:04:35.000Z,5.22
2022-12-23T01:07:02.479Z,5.50
2022-12-23T01:09:29.706Z,5.93
2022-12-23T01:11:56.427Z,6.43
2022-12-23T01:14:23.405Z,6.20
2022-12-23T01:16:50.209Z,5.60
2022-12-23T01:19:17.112Z,6.20
2022-12-23T01:21:43.928Z,5.75
2022-12-23T01:24:10.618Z,6.03
2022-12-23T01:26:37.427Z,5.68
2022-12-23T01:29:04.313Z,6.20
2022-12-23T01:31:31.183Z,6.20
2022-12-23T01:33:57.944Z,7.00
2022-12-23T01:36:24.992Z,6.72
2022-12-23T01:38:52.014Z,6.25
2022-12-23T01:41:55.540Z,6.13
2022-12-23T01:44:50.101Z,6.25
2022-12-23T01:47:25.848Z,6.13
2022-12-23T01:50:00.004Z,6.05
2022-12-23T01:52:27.464Z,6.05
2022-12-23T01:54:55.504Z,6.38
2022-12-23T01:57:22.798Z,5.97
2022-12-23T02:00:08.636Z,5.32
2022-12-23T02:02:55.698Z,5.65
2022-12-23T02:05:23.902Z,5.78
2022-12-23T02:08:11.248Z,5.50
2022-12-23T02:11:16.655Z,5.72
2022-12-23T02:14:49.147Z,5.28
2022-12-23T02:17:30.096Z,4.95
2022-12-23T02:20:44.818Z,5.80
2022-12-23T02:23:33.273Z,5.28
2022-12-23T02:26:14.954Z,4.70
2022-12-23T02:29:19.475Z,4.57
2022-12-23T02:31:49.098Z,5.53
2022-12-23T02:34:51.134Z,4.05
2022-12-23T02:37:41.614Z,4.28
2022-12-23T02:40:14.943Z,4.40
2022-12-23T02:42:54.074Z,4.65
2022-12-23T02:45:33.381Z,4.55
2022-12-23T02:48:07.805Z,4.30
2022-12-23T02:50:38.513Z,4.80
2022-12-23T02:53:21.963Z,4.45
2022-12-23T02:55:52.169Z,4.90
2022-12-23T02:58:26.531Z,4.30
2022-12-23T03:00:54.616Z,4.90
2022-12-23T03:03:22.460Z,4.38
2022-12-23T03:05:51.387Z,4.20
2022-12-23T03:08:29.581Z,4.70
2022-12-23T03:11:06.356Z,4.90
2022-12-23T03:13:57.354Z,4.57
2022-12-23T03:16:46.716Z,4.20
2022-12-23T03:19:32.841Z,4.78
2022-12-23T03:22:06.140Z,4.57
2022-12-23T03:24:44.711Z,5.20
2022-12-23T03:27:37.386Z,4.90
2022-12-23T03:30:08.627Z,6.68
2022-12-23T03:32:46.431Z,5.40
2022-12-23T03:35:20.445Z,5.90
2022-12-23T03:37:50.647Z,6.43
2022-12-23T03:40:23.999Z,7.65
2022-12-23T03:42:59.004Z,7.50
2022-12-23T03:45:40.352Z,6.50
2022-12-23T03:48:24.079Z,7.63
2022-12-23T03:50:56.335Z,7.05
2022-12-23T03:53:49.423Z,7.63
2022-12-23T03:56:40.595Z,7.43
2022-12-23T03:59:27.194Z,6.80
2022-12-23T04:01:56.745Z,7.13
2022-12-23T04:04:29.683Z,7.60
2022-12-23T04:07:16.136Z,7.22
2022-12-23T04:09:43.598Z,6.93
2022-12-23T04:12:10.711Z,7.97
2022-12-23T04:14:38.569Z,7.53
2022-12-23T04:17:05.435Z,7.20
2022-12-23T04:19:33.512Z,6.97
2022-12-23T04:22:00.425Z,7.20
2022-12-23T04:24:27.187Z,9.02
2022-12-23T04:26:53.930Z,6.82
2022-12-23T04:29:20.883Z,6.82
2022-12-23T04:31:47.606Z,6.72
2022-12-23T04:34:14.495Z,7.20
2022-12-23T04:36:41.235Z,6.30
2022-12-23T04:39:07.934Z,7.05
2022-12-23T04:41:34.789Z,7.75
2022-12-23T04:44:01.688Z,7.78
2022-12-23T04:46:28.335Z,7.80
2022-12-23T04:48:55.154Z,7.88
2022-12-23T04:51:22.099Z,7.15
2022-12-23T04:53:48.919Z,8.82
2022-12-23T04:56:15.605Z,9.02
2022-12-23T04:58:42.606Z,8.90
2022-12-23T05:01:11.011Z,10.05
2022-12-23T05:03:38.585Z,10.48
2022-12-23T05:06:06.233Z,9.77
2022-12-23T05:08:33.278Z,10.80
2022-12-23T05:11:00.047Z,9.43
2022-12-23T05:13:26.865Z,9.10
2022-12-23T05:15:55.106Z,9.93
2022-12-23T05:18:22.905Z,9.93
2022-12-23T05:20:50.407Z,10.68
2022-12-23T05:23:17.454Z,10.63
2022-12-23T05:25:44.344Z,10.05
2022-12-23T05:28:11.329Z,9.82
2022-12-23T05:30:38.144Z,10.00
2022-12-23T05:33:05.048Z,11.02
2022-12-23T05:35:31.852Z,9.75
2022-12-23T05:37:58.545Z,9.70
2022-12-23T05:40:28.750Z,10.07
2022-12-23T05:42:57.920Z,11.48
2022-12-23T05:45:24.647Z,9.93
2022-12-23T05:47:51.304Z,9.77
2022-12-23T05:50:18.873Z,9.90
2022-12-23T05:52:45.789Z,10.57
2022-12-23T05:55:12.696Z,10.00
2022-12-23T05:57:39.467Z,10.82
2022-12-23T06:00:06.882Z,10.10
2022-12-23T06:02:33.757Z,9.98
2022-12-23T06:05:00.662Z,9.95
2022-12-23T06:07:27.330Z,10.73
2022-12-23T06:09:53.979Z,10.05
2022-12-23T06:12:21.061Z,9.77
2022-12-23T06:14:47.966Z,10.25
2022-12-23T06:17:14.832Z,8.98
2022-12-23T06:19:41.711Z,10.40
2022-12-23T06:22:08.562Z,9.60
2022-12-23T06:24:35.551Z,9.10
2022-12-23T06:27:02.849Z,9.65
2022-12-23T06:29:29.915Z,9.55
2022-12-23T06:31:56.845Z,9.68
2022-12-23T06:34:23.991Z,10.10
2022-12-23T06:36:50.844Z,10.45
2022-12-23T06:39:17.687Z,9.23
2022-12-23T06:41:44.883Z,8.70
2022-12-23T06:44:11.867Z,10.15
2022-12-23T06:46:38.644Z,9.50
2022-12-23T06:49:12.618Z,9.60
2022-12-23T06:51:43.455Z,8.88
2022-12-23T06:54:12.182Z,10.50
2022-12-23T06:56:39.838Z,9.60
2022-12-23T06:59:06.660Z,10.65
2022-12-23T07:01:34.093Z,11.18
2022-12-23T07:04:02.041Z,9.68
2022-12-23T07:06:29.221Z,10.10
2022-12-23T07:08:56.034Z,10.68
2022-12-23T07:11:22.925Z,9.90
2022-12-23T07:13:49.803Z,8.60
2022-12-23T07:16:16.602Z,9.75
2022-12-23T07:18:43.526Z,10.13
2022-12-23T07:21:18.819Z,9.20
2022-12-23T07:23:48.205Z,9.38
2022-12-23T07:26:14.994Z,9.35
2022-12-23T07:28:44.193Z,9.60
2022-12-23T07:31:10.972Z,9.52
2022-12-23T07:33:37.643Z,9.05
2022-12-23T07:36:04.607Z,9.57
2022-12-23T07:38:31.562Z,10.25
2022-12-23T07:40:58.333Z,10.07
2022-12-23T07:43:25.407Z,9.35
2022-12-23T07:45:59.223Z,9.13
2022-12-23T07:48:27.143Z,9.30
2022-12-23T07:50:54.398Z,10.02
2022-12-23T07:53:21.435Z,9.40
2022-12-23T07:55:54.596Z,8.85
2022-12-23T07:58:23.665Z,9.90
2022-12-23T08:00:50.569Z,9.88
2022-12-23T08:03:17.588Z,9.63
2022-12-23T08:05:44.584Z,10.73
2022-12-23T08:08:11.333Z,9.23
2022-12-23T08:10:41.488Z,10.13
2022-12-23T08:13:11.697Z,9.63
2022-12-23T08:15:38.999Z,8.98
2022-12-23T08:18:07.206Z,9.80
2022-12-23T08:20:34.191Z,10.13
2022-12-23T08:23:00.951Z,9.65
2022-12-23T08:25:27.846Z,10.05
2022-12-23T08:27:54.747Z,10.10
2022-12-23T08:30:21.765Z,9.85
2022-12-23T08:32:48.879Z,10.60
2022-12-23T08:35:17.204Z,10.55
2022-12-23T08:37:44.116Z,9.95
2022-12-23T08:40:12.206Z,11.30
2022-12-23T08:42:39.356Z,9.77
2022-12-23T08:45:06.522Z,10.15
2022-12-23T08:47:33.409Z,11.05
2022-12-23T08:50:00.224Z,10.60
2022-12-23T08:52:27.980Z,10.63
2022-12-23T08:54:54.798Z,9.68
2022-12-23T08:57:23.307Z,9.50
2022-12-23T08:59:51.877Z,10.18
2022-12-23T09:02:18.665Z,10.57
2022-12-23T09:04:45.705Z,10.40
2022-12-23T09:07:12.515Z,10.38
2022-12-23T09:09:40.855Z,10.85
2022-12-23T09:12:07.970Z,10.30
2022-12-23T09:14:36.927Z,9.38
2022-12-23T09:17:03.941Z,9.52
2022-12-23T09:19:31.121Z,10.70
2022-12-23T09:21:58.013Z,10.50
2022-12-23T09:24:24.917Z,9.25
2022-12-23T09:26:51.832Z,9.70
2022-12-23T09:29:18.676Z,11.15
2022-12-23T09:31:45.575Z,9.75
2022-12-23T09:34:14.132Z,10.45
2022-12-23T09:36:40.952Z,11.13
2022-12-23T09:39:07.675Z,10.65
2022-12-23T09:41:42.953Z,9.07
2022-12-23T09:44:35.424Z,9.60
2022-12-23T09:47:09.756Z,7.93
2022-12-23T09:49:44.434Z,8.48
2022-12-23T09:52:16.715Z,8.80
2022-12-23T09:54:48.493Z,9.68
2022-12-23T09:57:42.169Z,10.60
2022-12-23T10:00:15.325Z,8.90
2022-12-23T10:03:14.681Z,8.02
2022-12-23T10:05:53.840Z,9.07
2022-12-23T10:08:40.018Z,9.75
2022-12-23T10:11:40.055Z,8.93
2022-12-23T10:14:25.239Z,8.18
2022-12-23T10:17:07.364Z,8.52
2022-12-23T10:19:42.485Z,8.90
2022-12-23T10:22:25.457Z,8.88
2022-12-23T10:24:55.642Z,8.60
2022-12-23T10:27:34.890Z,8.13
2022-12-23T10:33:24.473Z,9.73
2022-12-23T10:36:12.552Z,9.10
2022-12-23T10:38:45.133Z,8.48
2022-12-23T10:41:25.069Z,9.40
2022-12-23T10:44:29.320Z,7.70
2022-12-23T10:47:14.684Z,9.75
2022-12-23T10:50:01.740Z,11.02
2022-12-23T10:52:33.094Z,9.68
2022-12-23T10:54:59.786Z,9.13
2022-12-23T10:57:26.597Z,9.15
2022-12-23T10:59:53.633Z,8.85
2022-12-23T11:02:40.686Z,8.80
2022-12-23T11:05:17.735Z,9.32
2022-12-23T11:07:46.771Z,8.73
2022-12-23T11:10:18.456Z,8.85
2022-12-23T11:12:52.183Z,8.60
2022-12-23T11:15:27.436Z,8.27
2022-12-23T11:18:21.403Z,9.27
2022-12-23T11:21:05.804Z,8.93
2022-12-23T11:23:36.687Z,8.18
2022-12-23T11:26:08.010Z,9.07
2022-12-23T11:28:46.943Z,10.20
2022-12-23T11:31:16.383Z,9.90
2022-12-23T11:33:48.144Z,10.35
2022-12-23T11:36:24.053Z,11.65
2022-12-23T11:41:45.419Z,10.27
2022-12-23T11:44:18.940Z,10.10
2022-12-23T11:46:46.937Z,10.27
2022-12-23T11:49:28.166Z,9.93
2022-12-23T11:52:17.281Z,9.68
2022-12-23T11:54:54.598Z,10.05
2022-12-23T11:57:44.289Z,10.52
2022-12-23T12:00:21.591Z,9.52
2022-12-23T12:02:54.931Z,10.00
2022-12-23T12:05:46.785Z,10.18
2022-12-23T12:08:21.533Z,11.48
2022-12-23T12:10:52.669Z,10.55
2022-12-23T12:13:27.944Z,9.57
2022-12-23T12:16:22.616Z,11.95
2022-12-23T12:18:55.466Z,11.15
2022-12-23T12:21:28.460Z,11.48
2022-12-23T12:24:20.240Z,11.50
2022-12-23T12:26:52.619Z,9.82
2022-12-23T12:29:45.610Z,9.98
2022-12-23T12:32:22.075Z,11.35
2022-12-23T12:35:13.173Z,10.23
2022-12-23T12:37:53.736Z,10.02
2022-12-23T12:40:25.043Z,10.38
2022-12-23T12:43:23.549Z,9.45
2022-12-23T12:46:03.625Z,10.77
2022-12-23T12:48:51.668Z,12.65
2022-12-23T12:51:38.312Z,10.88
2022-12-23T12:54:14.440Z,11.65
2022-12-23T12:56:49.478Z,10.50
2022-12-23T12:59:28.131Z,11.00
2022-12-23T13:02:20.118Z,12.38
2022-12-23T13:05:06.321Z,10.48
2022-12-23T13:08:30.720Z,11.48
2022-12-23T13:11:28.564Z,10.63
2022-12-23T13:14:07.936Z,10.65
2022-12-23T13:16:37.472Z,9.57
2022-12-23T13:19:04.078Z,10.77
2022-12-23T13:21:47.248Z,10.55
2022-12-23T13:24:57.670Z,10.02
2022-12-23T13:27:34.265Z,9.93
2022-12-23T13:30:14.318Z,9.65
2022-12-23T13:33:08.592Z,10.13
2022-12-23T13:36:08.734Z,8.88
2022-12-23T13:39:13.081Z,9.23
2022-12-23T13:41:46.797Z,9.50
2022-12-23T13:44:15.312Z,9.55
2022-12-23T13:47:00.883Z,9.00
2022-12-23T13:49:58.693Z,8.97
2022-12-23T13:52:39.052Z,9.32
2022-12-23T13:55:47.133Z,8.18
2022-12-23T13:58:18.772Z,9.52
2022-12-23T14:00:45.834Z,9.27
2022-12-23T14:03:25.152Z,9.05
2022-12-23T14:05:53.965Z,8.15
2022-12-23T14:08:33.249Z,9.02
2022-12-23T14:11:20.151Z,8.50
2022-12-23T14:14:04.040Z,8.05
2022-12-23T14:16:55.850Z,8.50
2022-12-23T14:23:23.030Z,7.90
2022-12-23T14:26:20.812Z,7.50
2022-12-23T14:29:26.981Z,7.82
2022-12-23T14:31:58.603Z,7.72
2022-12-23T14:34:30.362Z,7.75
2022-12-23T14:37:26.096Z,8.75
2022-12-23T14:39:53.488Z,8.70
2022-12-23T14:43:27.934Z,8.32
2022-12-23T14:45:54.761Z,7.03
2022-12-23T14:48:33.587Z,7.78
2022-12-23T14:51:09.607Z,7.15
2022-12-23T14:53:57.128Z,7.97
2022-12-23T14:56:23.822Z,7.13
2022-12-23T14:58:59.750Z,6.35
2022-12-23T15:04:22.113Z,6.78
2022-12-23T15:06:53.682Z,6.72
2022-12-23T15:09:30.281Z,6.45
2022-12-23T15:12:00.508Z,6.57
2022-12-23T15:14:34.464Z,6.70
2022-12-23T15:17:26.014Z,7.32
2022-12-23T15:19:54.361Z,7.95
2022-12-23T15:22:26.823Z,7.18
2022-12-23T15:24:58.812Z,7.63
2022-12-23T15:27:29.609Z,7.78
2022-12-23T15:29:57.961Z,7.60
2022-12-23T15:32:26.767Z,7.28
2022-12-23T15:35:01.114Z,5.38
2022-12-23T15:37:32.166Z,6.88
2022-12-23T15:40:09.656Z,7.22
2022-12-23T15:42:38.722Z,8.50
2022-12-23T15:45:41.076Z,9.85
2022-12-23T15:48:25.159Z,8.25
2022-12-23T15:50:54.883Z,8.20
2022-12-23T15:53:21.779Z,8.77
2022-12-23T15:55:49.825Z,9.63
2022-12-23T15:58:20.009Z,9.20
2022-12-23T16:00:57.572Z,10.57
2022-12-23T16:03:29.905Z,9.52
2022-12-23T16:06:26.367Z,10.75
2022-12-23T16:08:59.222Z,9.77
2022-12-23T16:11:57.373Z,8.63
2022-12-23T16:14:35.804Z,8.52
2022-12-23T16:17:14.589Z,8.68
2022-12-23T16:19:52.294Z,9.23
2022-12-23T16:22:27.399Z,8.82
2022-12-23T16:25:12.046Z,7.40
2022-12-23T16:27:46.299Z,8.35
2022-12-23T16:30:22.061Z,8.75
2022-12-23T16:32:55.208Z,9.55
2022-12-23T16:35:37.072Z,8.73
2022-12-23T16:38:13.273Z,8.25
2022-12-23T16:40:41.041Z,8.18
2022-12-23T16:43:08.267Z,8.85
2022-12-23T16:45:36.754Z,8.63
2022-12-23T16:48:11.538Z,8.93
2022-12-23T16:50:38.645Z,6.90
2022-12-23T16:53:05.450Z,6.95
2022-12-23T16:55:32.112Z,8.18
2022-12-23T16:57:58.901Z,9.25
2022-12-23T17:00:26.037Z,8.02
2022-12-23T17:02:52.827Z,8.93
2022-12-23T17:05:22.371Z,8.57
2022-12-23T17:07:49.854Z,9.55
2022-12-23T17:10:19.629Z,8.35
2022-12-23T17:12:47.563Z,9.85
2022-12-23T17:17:52.134Z,8.90
2022-12-23T17:20:42.157Z,9.50
2022-12-23T17:23:26.009Z,9.55
2022-12-23T17:25:53.419Z,11.30
2022-12-23T17:28:28.091Z,10.82
2022-12-23T17:30:56.331Z,12.13
2022-12-23T17:33:27.267Z,11.25
2022-12-23T17:35:55.845Z,10.73
2022-12-23T17:38:23.081Z,9.68
2022-12-23T17:40:50.966Z,9.55
2022-12-23T17:43:20.901Z,9.18
2022-12-23T17:49:04.690Z,9.63
2022-12-23T17:51:31.741Z,9.00
2022-12-23T17:53:59.357Z,9.50
2022-12-23T17:56:28.938Z,10.07
2022-12-23T17:58:55.779Z,10.02
2022-12-23T18:01:27.880Z,12.02
2022-12-23T18:03:55.844Z,12.25
2022-12-23T18:06:23.917Z,10.55
2022-12-23T18:08:51.017Z,10.80
2022-12-23T18:11:28.141Z,9.95
2022-12-23T18:13:55.234Z,11.88
2022-12-23T18:16:22.321Z,13.05
2022-12-23T18:18:49.221Z,12.73
2022-12-23T18:21:28.120Z,11.40
2022-12-23T18:29:18.893Z,9.15
2022-12-23T18:31:51.575Z,10.20
2022-12-23T18:34:19.825Z,11.85
2022-12-23T18:36:48.516Z,12.13
2022-12-23T18:39:15.366Z,15.73
2022-12-23T18:41:42.104Z,16.95
2022-12-23T18:44:17.626Z,15.48
2022-12-23T18:46:44.376Z,14.60
2022-12-23T18:49:34.728Z,14.68
2022-12-23T18:51:59.814Z,11.27
2022-12-23T18:54:26.606Z,9.27
2022-12-23T18:56:53.338Z,9.75
2022-12-23T18:59:29.620Z,9.63
2022-12-23T19:01:57.182Z,8.05
2022-12-23T19:04:24.159Z,9.35
2022-12-23T19:06:51.132Z,9.98
2022-12-23T19:09:21.388Z,10.68
2022-12-23T19:12:06.194Z,12.15
2022-12-23T19:14:38.996Z,13.23
2022-12-23T19:17:10.627Z,14.32
2022-12-23T19:19:37.524Z,12.50
2022-12-23T19:22:04.344Z,12.52
2022-12-23T19:24:31.489Z,12.48
2022-12-23T19:26:58.697Z,12.52
2022-12-23T19:29:25.626Z,12.05
2022-12-23T19:31:52.679Z,11.70
2022-12-23T19:34:19.557Z,11.50
2022-12-23T19:37:13.023Z,11.48
2022-12-23T19:39:41.075Z,11.82
2022-12-23T19:42:09.031Z,12.10
2022-12-23T19:44:36.316Z,11.00
2022-12-23T19:47:04.152Z,10.75
2022-12-23T19:49:31.582Z,12.05
2022-12-23T19:51:58.676Z,10.90
2022-12-23T19:54:25.850Z,11.82
2022-12-23T19:56:53.267Z,11.85
2022-12-23T19:59:24.453Z,11.48
2022-12-23T20:01:51.502Z,11.95
2022-12-23T20:04:18.932Z,10.43
2022-12-23T20:10:24.689Z,11.40
2022-12-23T20:12:51.812Z,11.75
2022-12-23T20:15:18.761Z,12.65
2022-12-23T20:17:45.752Z,12.50
2022-12-23T20:20:12.903Z,14.38
2022-12-23T20:22:39.937Z,12.43
2022-12-23T20:25:07.223Z,12.43
2022-12-23T20:27:34.006Z,12.52
2022-12-23T20:30:00.652Z,12.65
2022-12-23T20:32:27.298Z,13.25
2022-12-23T20:34:53.992Z,11.93
2022-12-23T20:37:20.663Z,12.77
2022-12-23T20:39:47.288Z,11.80
2022-12-23T20:42:13.999Z,12.20
2022-12-23T20:44:41.815Z,10.27
2022-12-23T20:47:08.580Z,10.93
2022-12-23T20:49:35.379Z,9.95
2022-12-23T20:52:03.392Z,10.35
2022-12-23T20:54:33.709Z,10.38
2022-12-23T20:57:02.118Z,9.75
2022-12-23T20:59:29.234Z,9.15
2022-12-23T21:01:58.880Z,8.95
2022-12-23T21:04:25.836Z,9.93
2022-12-23T21:06:52.581Z,8.40
2022-12-23T21:09:19.429Z,7.93
2022-12-23T21:11:48.119Z,6.78
2022-12-23T21:14:16.187Z,7.25
2022-12-23T21:16:43.739Z,6.30
2022-12-23T21:38:13.260Z,5.90
2022-12-23T21:40:39.897Z,5.38
2022-12-23T21:43:08.854Z,5.07
2022-12-23T21:45:35.852Z,4.72
2022-12-23T21:48:02.524Z,5.03
2022-12-23T21:50:29.855Z,5.53
2022-12-23T21:52:56.695Z,5.40
2022-12-23T21:55:23.312Z,5.80
2022-12-23T21:57:49.974Z,6.13
2022-12-23T22:00:16.882Z,6.30
2022-12-23T22:02:46.361Z,6.07
2022-12-23T22:05:13.061Z,5.95
2022-12-23T22:07:39.809Z,5.63
2022-12-23T22:10:07.443Z,6.10
2022-12-23T22:12:34.139Z,6.40
2022-12-23T22:15:03.839Z,6.03
2022-12-23T22:17:34.736Z,5.20
2022-12-23T22:20:01.609Z,5.40
2022-12-23T22:22:28.291Z,5.47
2022-12-23T22:24:55.001Z,5.80
2022-12-23T22:27:21.773Z,5.70
2022-12-23T22:29:48.432Z,5.80
2022-12-23T22:32:15.151Z,4.80
2022-12-23T22:34:41.898Z,4.78
2022-12-23T22:37:08.878Z,4.57
2022-12-23T22:39:35.595Z,5.13
2022-12-23T22:42:02.431Z,4.90
2022-12-23T22:44:29.185Z,4.03
2022-12-23T22:46:55.975Z,3.72
2022-12-23T22:49:22.779Z,3.90
2022-12-23T22:51:49.534Z,3.60
2022-12-23T22:54:16.324Z,3.50
2022-12-23T22:56:43.304Z,4.25
2022-12-23T22:59:20.201Z,4.00
2022-12-23T23:01:48.137Z,3.90
2022-12-23T23:04:14.794Z,3.92
2022-12-23T23:06:42.140Z,3.95
2022-12-23T23:09:17.410Z,4.05
2022-12-23T23:11:44.605Z,4.38
2022-12-23T23:14:12.424Z,4.20
2022-12-23T23:16:39.612Z,3.83
2022-12-23T23:19:06.856Z,3.45
2022-12-23T23:21:34.509Z,3.50
2022-12-23T23:24:01.365Z,3.60
2022-12-23T23:26:28.010Z,4.35
2022-12-23T23:28:56.145Z,4.03
2022-12-23T23:34:10.742Z,3.78
2022-12-23T23:36:37.646Z,3.47
2022-12-23T23:39:04.374Z,3.20
2022-12-23T23:41:31.119Z,3.70
2022-12-23T23:43:58.057Z,2.80
2022-12-23T23:46:24.825Z,3.22
2022-12-23T23:48:51.610Z,3.47
2022-12-23T23:51:18.373Z,2.90
2022-12-23T23:53:45.035Z,3.35
2022-12-23T23:56:11.793Z,3.45
2022-12-23T23:58:38.611Z,3.33
